Погода Макаубасна неделю

Баия, Бразилия

19 - 25 июня
  • 19июня
    Сегодня
    +15°
    +30°
    Облачно с прояснениями
    ВремяПогодаТемператураВлажностьДавлениеВетер, м/сВероятность осадков
    00:00Практически безоблачно+19°C86 %703 мм1.4 м/с4 %
    03:00Ясно и безоблачно+18°C94 %703 мм1.7 м/с4 %
    06:00Ясно и безоблачно+17°C97 %704 мм1.5 м/с4 %
    09:00Небольшая облачность+23°C66 %706 мм2.8 м/с4 %
    12:00Облачно с прояснениями+28°C41 %705 мм3.8 м/с2 %
    15:00Облачно с прояснениями+30°C32 %703 мм3.9 м/с4 %
    18:00Практически безоблачно+24°C55 %704 мм3.4 м/с4 %
    21:00Ясно и безоблачно+23°C68 %705 мм2.8 м/с5 %
  • 20июня
    Четверг
    +15°
    +29°
    Пасмурно, сплошная облачность
    ВремяПогодаТемператураВлажностьДавлениеВетер, м/сВероятность осадков
    00:00Ясно и безоблачно+20°C77 %704 мм2.5 м/с5 %
    03:00Ясно и безоблачно+17°C88 %703 мм1.5 м/с5 %
    06:00Ясно и безоблачно+15°C93 %703 мм1.6 м/с5 %
    09:00Практически безоблачно+22°C65 %706 мм4.2 м/с4 %
    12:00Практически безоблачно+26°C39 %705 мм3.5 м/с2 %
    15:00Пасмурно, сплошная облачность+29°C32 %703 мм3.6 м/с4 %
    18:00Небольшая облачность+25°C43 %703 мм2.2 м/с2 %
    21:00Практически безоблачно+23°C65 %705 мм2.8 м/с9 %
  • 21июня
    Пятница
    +15°
    +29°
    Небольшая облачность
    ВремяПогодаТемператураВлажностьДавлениеВетер, м/сВероятность осадков
    00:00Практически безоблачно+20°C80 %705 мм1.4 м/с2 %
    03:00Ясно и безоблачно+17°C87 %703 мм2.0 м/с5 %
    06:00Ясно и безоблачно+15°C95 %703 мм1.5 м/с5 %
    09:00Ясно и безоблачно+23°C63 %706 мм3.1 м/с4 %
    12:00Облачно с прояснениями+26°C46 %705 мм4.2 м/с4 %
    15:00Небольшая облачность+28°C41 %704 мм3.2 м/с2 %
    18:00Небольшая облачность+23°C56 %703 мм4.0 м/с5 %
    21:00Практически безоблачно+22°C69 %705 мм2.8 м/с5 %
  • 22июня
    Суббота
    +15°
    +29°
    Ясно и безоблачно
    ВремяПогодаТемператураВлажностьДавлениеВетер, м/сВероятность осадков
    00:00Практически безоблачно+19°C79 %704 мм1.9 м/с5 %
    03:00Ясно и безоблачно+17°C86 %704 мм1.5 м/с5 %
    06:00Ясно и безоблачно+15°C91 %704 мм1.6 м/с5 %
    09:00Ясно и безоблачно+22°C58 %706 мм3.0 м/с5 %
    12:00Ясно и безоблачно+26°C37 %705 мм2.9 м/с5 %
    15:00Ясно и безоблачно+29°C26 %703 мм1.6 м/с5 %
    18:00Ясно и безоблачно+24°C40 %703 мм0.6 м/с5 %
    21:00Ясно и безоблачно+21°C52 %704 мм2.4 м/с5 %
  • 23июня
    Воскресенье
    +15°
    +30°
    Ясно и безоблачно
    ВремяПогодаТемператураВлажностьДавлениеВетер, м/сВероятность осадков
    00:00Ясно и безоблачно+19°C61 %704 мм1.4 м/с5 %
    03:00Ясно и безоблачно+18°C65 %703 мм2.0 м/с5 %
    06:00Ясно и безоблачно+16°C83 %704 мм1.2 м/с5 %
    09:00Ясно и безоблачно+22°C62 %706 мм2.0 м/с5 %
    12:00Ясно и безоблачно+26°C37 %705 мм2.5 м/с5 %
    15:00Ясно и безоблачно+29°C28 %703 мм1.6 м/с5 %
    18:00Ясно и безоблачно+24°C37 %703 мм0.4 м/с5 %
    21:00Ясно и безоблачно+23°C55 %704 мм2.0 м/с6 %
Мы используем cookies
Соглашаюсь